Time;durP1;ratioP1;P1;durP2;ratioP2;P2;SDS_P1;SDS_P2;PMS_P1;PMS_P2;Temp;Humidity;BMP_temperature;BMP_pressure;BME280_temperature;BME280_humidity;BME280_pressure;Samples;Min_cycle;Max_cycle;Signal;HPM_P1;HPM_P2
2024/01/19 00:02:04;;;;;;;7.38;2.45;;;;;;;;;;4850910;29;20061;-76
2024/01/19 00:04:34;;;;;;;9.85;2.45;;;;;;;;;;4850604;29;20084;-77
2024/01/19 00:07:06;;;;;;;6.20;2.50;;;;;;;;;;4849926;29;20061;-76
2024/01/19 00:09:38;;;;;;;6.40;2.63;;;;;;;;;;4850391;29;20064;-76
2024/01/19 00:12:08;;;;;;;8.48;2.55;;;;;;;;;;4850466;29;20053;-75
2024/01/19 00:14:38;;;;;;;6.00;2.67;;;;;;;;;;4850571;29;20054;-74
2024/01/19 00:17:10;;;;;;;10.43;2.70;;;;;;;;;;4851233;29;20535;-75
2024/01/19 00:19:41;;;;;;;6.47;2.33;;;;;;;;;;4849221;29;20057;-75
2024/01/19 00:22:11;;;;;;;5.35;2.42;;;;;;;;;;4846319;29;20056;-75
2024/01/19 00:24:41;;;;;;;6.75;3.10;;;;;;;;;;4827118;29;20046;-77
2024/01/19 00:27:13;;;;;;;10.38;3.33;;;;;;;;;;4830889;29;20042;-75
2024/01/19 00:29:43;;;;;;;7.82;2.90;;;;;;;;;;4829524;29;20426;-75
2024/01/19 00:32:14;;;;;;;8.13;3.00;;;;;;;;;;4831744;29;20057;-79
2024/01/19 00:34:44;;;;;;;3.08;2.60;;;;;;;;;;4829367;29;20668;-76
2024/01/19 00:37:16;;;;;;;9.48;2.63;;;;;;;;;;4831447;29;20057;-75
2024/01/19 00:39:48;;;;;;;7.93;2.67;;;;;;;;;;4832195;29;20049;-76
2024/01/19 00:42:18;;;;;;;5.55;2.55;;;;;;;;;;4832184;29;20505;-75
2024/01/19 00:44:48;;;;;;;5.35;2.58;;;;;;;;;;4831615;29;20069;-75
2024/01/19 00:47:19;;;;;;;6.82;2.90;;;;;;;;;;4832043;29;20333;-76
2024/01/19 00:49:50;;;;;;;9.95;2.70;;;;;;;;;;4831744;29;20050;-76
2024/01/19 00:52:21;;;;;;;11.70;2.28;;;;;;;;;;4832299;29;20054;-75
2024/01/19 00:54:51;;;;;;;7.70;2.58;;;;;;;;;;4832040;29;20050;-75
2024/01/19 00:57:24;;;;;;;5.40;2.42;;;;;;;;;;4831542;29;20046;-75
2024/01/19 00:59:55;;;;;;;6.05;2.58;;;;;;;;;;4830983;29;20054;-75
2024/01/19 01:02:27;;;;;;;7.95;2.67;;;;;;;;;;4831748;29;20053;-76
2024/01/19 01:04:58;;;;;;;9.10;3.00;;;;;;;;;;4830839;29;20418;-75
2024/01/19 01:07:30;;;;;;;7.80;2.72;;;;;;;;;;4826912;29;20038;-75
2024/01/19 01:10:03;;;;;;;6.13;2.45;;;;;;;;;;4829763;29;20560;-77
2024/01/19 01:12:34;;;;;;;10.23;2.97;;;;;;;;;;4814926;29;20042;-75
2024/01/19 01:15:04;;;;;;;5.45;2.28;;;;;;;;;;4830823;29;20450;-77
2024/01/19 01:17:36;;;;;;;7.72;2.35;;;;;;;;;;4830405;29;20044;-77
2024/01/19 01:20:10;;;;;;;6.22;2.50;;;;;;;;;;4831243;29;20046;-77
2024/01/19 01:22:42;;;;;;;5.70;2.50;;;;;;;;;;4829961;29;20541;-77
2024/01/19 01:25:12;;;;;;;5.47;2.28;;;;;;;;;;4831646;29;20054;-76
2024/01/19 01:27:43;;;;;;;8.40;2.70;;;;;;;;;;4830214;29;20054;-76
2024/01/19 01:30:14;;;;;;;8.98;2.60;;;;;;;;;;4828972;29;20072;-76
2024/01/19 01:32:44;;;;;;;5.80;2.83;;;;;;;;;;4828587;29;20053;-76
2024/01/19 01:35:15;;;;;;;9.98;2.55;;;;;;;;;;4830756;29;20069;-77
2024/01/19 01:37:46;;;;;;;9.02;2.53;;;;;;;;;;4829004;29;20057;-76
2024/01/19 01:40:18;;;;;;;7.72;2.85;;;;;;;;;;4833420;29;20769;-76
2024/01/19 01:42:49;;;;;;;7.75;2.55;;;;;;;;;;4835639;29;20050;-75
2024/01/19 01:45:19;;;;;;;5.03;2.22;;;;;;;;;;4833246;29;20046;-76
2024/01/19 01:47:49;;;;;;;5.10;2.50;;;;;;;;;;4832753;29;20890;-75
2024/01/19 01:50:20;;;;;;;5.20;2.50;;;;;;;;;;4833180;29;20050;-77
2024/01/19 01:52:56;;;;;;;4.88;2.47;;;;;;;;;;4830732;29;20042;-76
2024/01/19 01:55:26;;;;;;;9.27;2.50;;;;;;;;;;4833871;29;20110;-77
2024/01/19 01:57:56;;;;;;;11.38;2.58;;;;;;;;;;4833345;29;20066;-76
2024/01/19 02:00:30;;;;;;;6.88;2.50;;;;;;;;;;4834972;29;20057;-76
2024/01/19 02:03:02;;;;;;;4.70;2.22;;;;;;;;;;4834946;29;20497;-75
2024/01/19 02:05:33;;;;;;;5.80;2.60;;;;;;;;;;4835593;29;20058;-75
2024/01/19 02:08:04;;;;;;;7.32;2.40;;;;;;;;;;4833274;29;20054;-75
2024/01/19 02:10:36;;;;;;;5.60;2.50;;;;;;;;;;4834484;29;20233;-76
2024/01/19 02:13:08;;;;;;;4.00;2.30;;;;;;;;;;4834430;29;20054;-76
2024/01/19 02:15:39;;;;;;;7.93;2.78;;;;;;;;;;4834724;29;20064;-76
2024/01/19 02:18:08;;;;;;;7.07;2.55;;;;;;;;;;4834007;29;20058;-75
2024/01/19 02:20:40;;;;;;;8.00;2.35;;;;;;;;;;4834469;29;20042;-75
2024/01/19 02:23:14;;;;;;;6.32;2.58;;;;;;;;;;4834320;29;20510;-76
2024/01/19 02:25:45;;;;;;;10.00;2.63;;;;;;;;;;4834481;29;20062;-76
2024/01/19 02:28:15;;;;;;;22.48;3.15;;;;;;;;;;4834422;29;20049;-76
2024/01/19 02:30:46;;;;;;;7.88;2.85;;;;;;;;;;4834323;29;20057;-76
2024/01/19 02:33:17;;;;;;;11.00;2.28;;;;;;;;;;4834257;29;20505;-76
2024/01/19 02:35:48;;;;;;;5.50;2.60;;;;;;;;;;4833419;29;20050;-76
2024/01/19 02:38:18;;;;;;;6.13;2.63;;;;;;;;;;4834297;29;20052;-75
2024/01/19 02:40:51;;;;;;;7.57;2.60;;;;;;;;;;4832709;29;20049;-76
2024/01/19 02:43:23;;;;;;;5.57;2.60;;;;;;;;;;4834407;29;20510;-81
2024/01/19 02:45:53;;;;;;;8.15;2.30;;;;;;;;;;4834424;29;20056;-76
2024/01/19 02:48:23;;;;;;;9.15;2.20;;;;;;;;;;4832312;29;20050;-76
2024/01/19 02:50:54;;;;;;;9.00;2.35;;;;;;;;;;4833498;29;20878;-76
2024/01/19 02:53:25;;;;;;;7.32;2.13;;;;;;;;;;4833388;29;20418;-76
2024/01/19 02:55:56;;;;;;;11.05;2.38;;;;;;;;;;4833377;29;20058;-76
2024/01/19 02:58:27;;;;;;;8.05;2.42;;;;;;;;;;4833761;29;20540;-75
2024/01/19 03:00:59;;;;;;;8.00;2.50;;;;;;;;;;4833324;29;20640;-75
2024/01/19 03:03:31;;;;;;;7.78;2.13;;;;;;;;;;4833443;29;20062;-76
2024/01/19 03:06:01;;;;;;;5.30;1.65;;;;;;;;;;4833477;29;20058;-76
2024/01/19 03:08:31;;;;;;;6.45;1.70;;;;;;;;;;4833407;29;20045;-75
2024/01/19 03:11:02;;;;;;;6.38;2.10;;;;;;;;;;4833613;29;20049;-76
2024/01/19 03:13:33;;;;;;;2.45;2.10;;;;;;;;;;4833200;29;20061;-75
2024/01/19 03:16:06;;;;;;;7.05;2.00;;;;;;;;;;4833352;29;20046;-76
2024/01/19 03:18:36;;;;;;;7.72;1.85;;;;;;;;;;4833677;29;20168;-76
2024/01/19 03:21:06;;;;;;;12.85;2.42;;;;;;;;;;4833872;29;20058;-75
2024/01/19 03:23:37;;;;;;;6.95;2.22;;;;;;;;;;4833271;29;20524;-75
2024/01/19 03:26:07;;;;;;;6.07;1.92;;;;;;;;;;4831906;29;20088;-75
2024/01/19 03:28:38;;;;;;;4.65;2.30;;;;;;;;;;4832680;29;20771;-75
2024/01/19 03:31:08;;;;;;;8.32;2.30;;;;;;;;;;4833032;29;20046;-76
2024/01/19 03:33:40;;;;;;;9.13;1.80;;;;;;;;;;4832869;29;20057;-76
2024/01/19 03:36:11;;;;;;;10.30;2.05;;;;;;;;;;4833092;29;20053;-75
2024/01/19 03:38:41;;;;;;;7.85;1.77;;;;;;;;;;4831483;29;20872;-76
2024/01/19 03:41:11;;;;;;;5.68;2.13;;;;;;;;;;4832456;29;20057;-75
2024/01/19 03:43:44;;;;;;;3.50;1.65;;;;;;;;;;4832837;29;20521;-75
2024/01/19 03:46:16;;;;;;;3.95;1.60;;;;;;;;;;4832746;29;20963;-75
2024/01/19 03:48:47;;;;;;;4.22;1.80;;;;;;;;;;4832704;29;20046;-75
2024/01/19 03:51:17;;;;;;;4.20;1.60;;;;;;;;;;4833069;29;20061;-75
2024/01/19 03:53:48;;;;;;;6.47;1.92;;;;;;;;;;4833328;29;20050;-76
2024/01/19 03:56:18;;;;;;;7.13;1.83;;;;;;;;;;4832671;29;20778;-74
2024/01/19 03:58:49;;;;;;;3.92;1.67;;;;;;;;;;4833256;29;20061;-75
2024/01/19 04:01:19;;;;;;;3.45;1.48;;;;;;;;;;4832137;29;20049;-76
2024/01/19 04:03:50;;;;;;;6.03;1.65;;;;;;;;;;4832076;29;20064;-75
2024/01/19 04:06:21;;;;;;;4.88;1.52;;;;;;;;;;4832434;29;20053;-76
2024/01/19 04:08:52;;;;;;;4.03;2.00;;;;;;;;;;4832853;29;20057;-74
2024/01/19 04:11:23;;;;;;;3.55;1.95;;;;;;;;;;4832012;29;20061;-75
2024/01/19 04:13:54;;;;;;;3.78;1.75;;;;;;;;;;4832226;29;20390;-76
2024/01/19 04:16:24;;;;;;;6.38;2.20;;;;;;;;;;4832284;29;20050;-75
2024/01/19 04:18:56;;;;;;;9.93;2.00;;;;;;;;;;4832751;29;20061;-76
2024/01/19 04:21:26;;;;;;;2.03;1.38;;;;;;;;;;4830590;29;20050;-76
2024/01/19 04:24:00;;;;;;;6.90;2.13;;;;;;;;;;4831557;29;20520;-77
2024/01/19 04:26:31;;;;;;;2.28;1.40;;;;;;;;;;4832566;29;20061;-75
2024/01/19 04:29:01;;;;;;;3.80;1.45;;;;;;;;;;4831780;29;20065;-76
2024/01/19 04:31:32;;;;;;;9.82;1.50;;;;;;;;;;4831934;29;20052;-76
2024/01/19 04:34:02;;;;;;;5.95;1.30;;;;;;;;;;4832150;29;20596;-75
2024/01/19 04:36:34;;;;;;;1.98;1.17;;;;;;;;;;4832733;29;20061;-75
2024/01/19 04:39:04;;;;;;;6.30;1.63;;;;;;;;;;4832296;29;20061;-75
2024/01/19 04:41:35;;;;;;;1.40;1.10;;;;;;;;;;4830568;29;20058;-76
2024/01/19 04:44:06;;;;;;;5.63;1.45;;;;;;;;;;4831827;29;20065;-75
2024/01/19 04:46:37;;;;;;;6.57;1.80;;;;;;;;;;4830582;29;20064;-76
2024/01/19 04:49:09;;;;;;;3.67;1.60;;;;;;;;;;4832065;29;20064;-75
2024/01/19 04:51:40;;;;;;;11.38;2.55;;;;;;;;;;4830649;29;20053;-75
2024/01/19 04:54:11;;;;;;;6.78;1.88;;;;;;;;;;4831901;29;20061;-74
2024/01/19 04:56:42;;;;;;;2.97;2.00;;;;;;;;;;4831887;29;20053;-76
2024/01/19 04:59:13;;;;;;;3.88;1.90;;;;;;;;;;4830810;29;20410;-75
2024/01/19 05:01:48;;;;;;;5.25;1.70;;;;;;;;;;4831735;29;20073;-75
2024/01/19 05:04:19;;;;;;;3.20;1.80;;;;;;;;;;4831843;29;20414;-75
2024/01/19 05:06:50;;;;;;;4.03;1.80;;;;;;;;;;4830115;29;20426;-75
2024/01/19 05:09:20;;;;;;;4.32;2.10;;;;;;;;;;4831983;29;20049;-74
2024/01/19 05:11:50;;;;;;;5.63;1.60;;;;;;;;;;4831912;29;20060;-74
2024/01/19 05:14:21;;;;;;;8.90;1.63;;;;;;;;;;4834628;29;20053;-75
2024/01/19 05:16:52;;;;;;;6.43;2.05;;;;;;;;;;4834486;29;20612;-76
2024/01/19 05:19:22;;;;;;;13.45;2.28;;;;;;;;;;4835916;29;20379;-76
2024/01/19 05:21:52;;;;;;;7.05;2.13;;;;;;;;;;4835075;29;20404;-76
2024/01/19 05:24:24;;;;;;;6.38;1.73;;;;;;;;;;4835135;29;20502;-75
2024/01/19 05:26:55;;;;;;;7.80;2.50;;;;;;;;;;4835501;29;20596;-75
2024/01/19 05:29:26;;;;;;;3.20;1.98;;;;;;;;;;4835442;29;20497;-75
2024/01/19 05:31:56;;;;;;;9.30;2.25;;;;;;;;;;4835508;29;20052;-75
2024/01/19 05:34:26;;;;;;;10.07;2.40;;;;;;;;;;4834794;29;20425;-75
2024/01/19 05:36:59;;;;;;;8.68;2.30;;;;;;;;;;4835659;29;20418;-76
2024/01/19 05:39:29;;;;;;;7.90;2.78;;;;;;;;;;4835240;29;20689;-75
2024/01/19 05:42:00;;;;;;;7.88;1.77;;;;;;;;;;4834866;29;20054;-75
2024/01/19 05:44:31;;;;;;;11.38;1.83;;;;;;;;;;4835100;29;20066;-74
2024/01/19 05:47:02;;;;;;;9.25;2.13;;;;;;;;;;4835780;29;20074;-76
2024/01/19 05:49:33;;;;;;;9.40;1.80;;;;;;;;;;4835431;29;20058;-76
2024/01/19 05:52:03;;;;;;;5.90;2.35;;;;;;;;;;4834623;29;20073;-75
2024/01/19 05:54:36;;;;;;;8.50;2.80;;;;;;;;;;4834465;29;20054;-76
2024/01/19 05:57:09;;;;;;;9.27;2.40;;;;;;;;;;4834807;29;20042;-76
2024/01/19 05:59:40;;;;;;;4.90;2.05;;;;;;;;;;4834503;29;20085;-75
2024/01/19 06:02:11;;;;;;;8.18;2.47;;;;;;;;;;4834821;29;20053;-76
2024/01/19 06:04:43;;;;;;;5.57;2.10;;;;;;;;;;4835047;29;20062;-76
2024/01/19 06:07:13;;;;;;;7.82;2.10;;;;;;;;;;4834342;29;20117;-75
2024/01/19 06:09:44;;;;;;;7.80;2.58;;;;;;;;;;4834320;29;20045;-75
2024/01/19 06:12:15;;;;;;;10.73;2.53;;;;;;;;;;4833294;29;20866;-76
2024/01/19 06:14:47;;;;;;;8.32;2.20;;;;;;;;;;4834618;29;20615;-76
2024/01/19 06:17:17;;;;;;;4.88;1.90;;;;;;;;;;4833844;29;20565;-76
2024/01/19 06:19:48;;;;;;;8.55;2.30;;;;;;;;;;4834513;29;20536;-75
2024/01/19 06:22:18;;;;;;;5.38;2.30;;;;;;;;;;4834411;29;20528;-74
2024/01/19 06:24:52;;;;;;;3.58;2.20;;;;;;;;;;4833297;29;20054;-75
2024/01/19 06:27:23;;;;;;;9.00;2.08;;;;;;;;;;4834286;29;20053;-75
2024/01/19 06:29:54;;;;;;;8.07;2.10;;;;;;;;;;4832901;29;20053;-75
2024/01/19 06:32:25;;;;;;;8.35;2.05;;;;;;;;;;4834046;29;20053;-75
2024/01/19 06:34:56;;;;;;;4.90;2.10;;;;;;;;;;4834379;29;20042;-74
2024/01/19 06:37:28;;;;;;;12.85;2.15;;;;;;;;;;4834095;29;20518;-74
2024/01/19 06:39:58;;;;;;;6.35;1.95;;;;;;;;;;4834025;29;20058;-76
2024/01/19 06:42:30;;;;;;;8.90;2.33;;;;;;;;;;4832845;29;20049;-75
2024/01/19 06:45:03;;;;;;;5.90;1.90;;;;;;;;;;4833910;29;20651;-74
2024/01/19 06:47:35;;;;;;;14.05;2.22;;;;;;;;;;4833686;29;20057;-74
2024/01/19 06:50:05;;;;;;;8.27;1.90;;;;;;;;;;4833592;29;20053;-76
2024/01/19 06:52:35;;;;;;;6.30;1.77;;;;;;;;;;4833916;29;20061;-75
2024/01/19 06:55:07;;;;;;;6.70;1.80;;;;;;;;;;4833690;29;20077;-75
2024/01/19 06:57:38;;;;;;;8.00;1.80;;;;;;;;;;4833512;29;20502;-75
2024/01/19 07:00:09;;;;;;;4.30;1.88;;;;;;;;;;4833687;29;20490;-74
2024/01/19 07:02:40;;;;;;;4.90;1.60;;;;;;;;;;4833982;29;20046;-75
2024/01/19 07:05:11;;;;;;;5.18;1.40;;;;;;;;;;4833695;29;20137;-74
2024/01/19 07:07:43;;;;;;;6.03;1.90;;;;;;;;;;4833668;29;20062;-75
2024/01/19 07:10:13;;;;;;;5.53;1.92;;;;;;;;;;4833436;29;20057;-75
2024/01/19 07:12:44;;;;;;;6.65;2.50;;;;;;;;;;4833321;29;20061;-75
2024/01/19 07:15:15;;;;;;;4.10;1.92;;;;;;;;;;4834132;29;20046;-75
2024/01/19 07:17:47;;;;;;;3.10;1.80;;;;;;;;;;4832943;29;20513;-74
2024/01/19 07:20:18;;;;;;;7.80;1.90;;;;;;;;;;4833047;29;20070;-75
2024/01/19 07:22:47;;;;;;;5.65;1.92;;;;;;;;;;4833285;29;20065;-75
2024/01/19 07:25:19;;;;;;;10.77;2.03;;;;;;;;;;4833143;29;20046;-75
2024/01/19 07:27:49;;;;;;;6.95;2.00;;;;;;;;;;4832549;29;20073;-75
2024/01/19 07:30:20;;;;;;;4.95;1.90;;;;;;;;;;4833051;29;20061;-74
2024/01/19 07:32:50;;;;;;;3.50;1.90;;;;;;;;;;4832679;29;20049;-75
2024/01/19 07:35:35;;;;;;;8.40;2.25;;;;;;;;;;4831956;29;20046;-75
2024/01/19 07:38:06;;;;;;;2.47;1.75;;;;;;;;;;4832996;29;20061;-75
2024/01/19 07:40:37;;;;;;;4.00;1.90;;;;;;;;;;4832996;29;20061;-75
2024/01/19 07:43:07;;;;;;;12.32;1.90;;;;;;;;;;4834131;29;20498;-74
2024/01/19 07:45:37;;;;;;;8.13;2.03;;;;;;;;;;4832620;29;20422;-74
2024/01/19 07:48:10;;;;;;;4.22;1.80;;;;;;;;;;4831140;29;20041;-75
2024/01/19 07:50:40;;;;;;;6.53;2.25;;;;;;;;;;4832483;29;20054;-75
2024/01/19 07:53:11;;;;;;;5.35;2.10;;;;;;;;;;4831563;29;20414;-75
2024/01/19 07:55:42;;;;;;;7.60;2.20;;;;;;;;;;4832502;29;20517;-75
2024/01/19 07:58:13;;;;;;;9.10;2.03;;;;;;;;;;4832559;29;20057;-75
2024/01/19 08:00:46;;;;;;;7.18;1.95;;;;;;;;;;4832516;29;20421;-75
2024/01/19 08:03:17;;;;;;;5.95;2.40;;;;;;;;;;4831966;29;20065;-74
2024/01/19 08:05:48;;;;;;;7.63;1.70;;;;;;;;;;4832346;29;20873;-74
2024/01/19 08:08:19;;;;;;;9.77;1.90;;;;;;;;;;4831078;29;20061;-75
2024/01/19 08:10:49;;;;;;;6.68;2.30;;;;;;;;;;4833549;29;20054;-75
2024/01/19 08:13:19;;;;;;;10.05;2.10;;;;;;;;;;4832304;29;20065;-75
2024/01/19 08:15:50;;;;;;;2.90;1.88;;;;;;;;;;4832884;29;20058;-75
2024/01/19 08:18:21;;;;;;;9.70;2.40;;;;;;;;;;4832329;29;20072;-76
2024/01/19 08:20:52;;;;;;;5.30;2.10;;;;;;;;;;4832275;29;20061;-75
2024/01/19 08:23:23;;;;;;;5.88;1.95;;;;;;;;;;4832390;29;20058;-75
2024/01/19 08:25:54;;;;;;;7.30;1.70;;;;;;;;;;4830651;29;20062;-75
2024/01/19 08:28:25;;;;;;;7.43;2.10;;;;;;;;;;4831839;29;20065;-74
2024/01/19 08:30:55;;;;;;;8.00;2.10;;;;;;;;;;4832566;29;20124;-75
2024/01/19 08:33:25;;;;;;;6.18;2.03;;;;;;;;;;4831680;29;20076;-75
2024/01/19 08:35:56;;;;;;;11.85;2.25;;;;;;;;;;4830908;29;20062;-75
2024/01/19 08:38:27;;;;;;;6.38;1.80;;;;;;;;;;4832346;29;20057;-75
2024/01/19 08:40:57;;;;;;;5.45;2.38;;;;;;;;;;4832626;29;20057;-77
2024/01/19 08:43:27;;;;;;;3.88;1.90;;;;;;;;;;4832100;29;20451;-74
2024/01/19 08:46:00;;;;;;;3.95;2.10;;;;;;;;;;4831815;29;20546;-73
2024/01/19 08:48:31;;;;;;;5.82;2.17;;;;;;;;;;4831754;29;20058;-74
2024/01/19 08:51:03;;;;;;;4.13;2.05;;;;;;;;;;4831991;29;20057;-74
2024/01/19 08:53:33;;;;;;;8.68;1.73;;;;;;;;;;4831491;29;20499;-75
2024/01/19 08:56:04;;;;;;;6.45;2.05;;;;;;;;;;4832088;29;20070;-73
2024/01/19 08:58:37;;;;;;;10.38;2.20;;;;;;;;;;4832007;29;20062;-74
2024/01/19 09:01:07;;;;;;;9.18;2.20;;;;;;;;;;4832227;29;20041;-74
2024/01/19 09:03:38;;;;;;;10.70;2.08;;;;;;;;;;4815462;29;20046;-74
2024/01/19 09:06:08;;;;;;;4.38;2.17;;;;;;;;;;4831948;29;20050;-74
2024/01/19 09:08:44;;;;;;;4.28;2.15;;;;;;;;;;4831852;29;20054;-74
2024/01/19 09:11:16;;;;;;;3.80;2.50;;;;;;;;;;4830115;29;20054;-75
2024/01/19 09:13:46;;;;;;;11.57;2.95;;;;;;;;;;4831588;29;20053;-74
2024/01/19 09:16:16;;;;;;;6.35;2.70;;;;;;;;;;4831684;29;20417;-75
2024/01/19 09:18:47;;;;;;;6.95;2.70;;;;;;;;;;4831591;29;20057;-75
2024/01/19 09:21:18;;;;;;;5.05;2.92;;;;;;;;;;4831339;29;20057;-74
2024/01/19 09:23:48;;;;;;;6.43;2.67;;;;;;;;;;4831319;29;20050;-75
2024/01/19 09:26:22;;;;;;;6.93;2.90;;;;;;;;;;4831724;29;20057;-75
2024/01/19 09:28:52;;;;;;;6.68;2.83;;;;;;;;;;4831551;29;20046;-74
2024/01/19 09:31:23;;;;;;;7.50;2.05;;;;;;;;;;4831591;29;20054;-75
2024/01/19 09:33:54;;;;;;;5.82;1.92;;;;;;;;;;4831505;29;20057;-74
2024/01/19 09:36:24;;;;;;;4.35;2.00;;;;;;;;;;4832047;29;20074;-75
2024/01/19 09:38:56;;;;;;;3.78;1.80;;;;;;;;;;4832053;29;20513;-75
2024/01/19 09:41:27;;;;;;;2.53;1.92;;;;;;;;;;4831277;29;20045;-73
2024/01/19 09:44:00;;;;;;;6.00;2.13;;;;;;;;;;4831037;29;20058;-74
2024/01/19 09:46:31;;;;;;;10.48;2.20;;;;;;;;;;4831331;29;20061;-76
2024/01/19 09:49:17;;;;;;;7.00;2.40;;;;;;;;;;4831207;29;20054;-75
2024/01/19 09:52:00;;;;;;;7.45;2.30;;;;;;;;;;4831276;29;20506;-75
2024/01/19 09:54:33;;;;;;;8.60;3.22;;;;;;;;;;4831624;29;20057;-82
2024/01/19 09:57:04;;;;;;;10.23;2.70;;;;;;;;;;4830857;29;20062;-75
2024/01/19 09:59:36;;;;;;;10.52;3.10;;;;;;;;;;4830793;29;20054;-74
2024/01/19 10:02:09;;;;;;;5.43;2.50;;;;;;;;;;4834313;29;20053;-75
2024/01/19 10:04:39;;;;;;;7.68;2.55;;;;;;;;;;4834422;29;20054;-74
2024/01/19 10:07:10;;;;;;;6.70;2.40;;;;;;;;;;4834057;29;20433;-74
2024/01/19 10:09:42;;;;;;;12.35;2.33;;;;;;;;;;4834821;29;20050;-75
2024/01/19 10:12:15;;;;;;;4.43;2.22;;;;;;;;;;4833567;29;20053;-74
2024/01/19 10:14:45;;;;;;;5.43;2.15;;;;;;;;;;4833966;29;20042;-74
2024/01/19 10:17:16;;;;;;;13.77;2.63;;;;;;;;;;4834655;29;20049;-74
2024/01/19 10:19:50;;;;;;;4.35;2.15;;;;;;;;;;4834320;29;20447;-76
2024/01/19 10:22:30;;;;;;;5.57;2.35;;;;;;;;;;4833598;29;20519;-76
2024/01/19 10:25:05;;;;;;;3.95;1.98;;;;;;;;;;4834474;29;20065;-75
2024/01/19 10:27:51;;;;;;;4.15;1.98;;;;;;;;;;4833984;29;20050;-76
2024/01/19 10:30:30;;;;;;;7.53;2.33;;;;;;;;;;4833980;29;20049;-75
2024/01/19 10:33:08;;;;;;;5.00;2.13;;;;;;;;;;4832976;29;20054;-75
2024/01/19 10:35:41;;;;;;;6.63;1.70;;;;;;;;;;4834568;29;20061;-76
2024/01/19 10:38:12;;;;;;;4.90;1.42;;;;;;;;;;4834466;29;20053;-74
2024/01/19 10:40:42;;;;;;;5.22;1.50;;;;;;;;;;4833972;29;20425;-74
2024/01/19 10:43:23;;;;;;;6.35;1.50;;;;;;;;;;4833479;29;20778;-76
2024/01/19 10:45:53;;;;;;;4.60;1.30;;;;;;;;;;4833903;29;20680;-79
2024/01/19 10:48:26;;;;;;;11.30;1.50;;;;;;;;;;4834540;29;20054;-77
2024/01/19 10:51:07;;;;;;;4.47;2.05;;;;;;;;;;4833847;29;20057;-77
2024/01/19 10:53:37;;;;;;;5.85;1.30;;;;;;;;;;4831820;29;20537;-76
2024/01/19 10:56:09;;;;;;;6.68;1.42;;;;;;;;;;4833602;29;20124;-75
2024/01/19 10:58:39;;;;;;;9.00;1.90;;;;;;;;;;4833409;29;20058;-77
2024/01/19 11:01:14;;;;;;;3.80;1.27;;;;;;;;;;4833657;29;20423;-76
2024/01/19 11:03:45;;;;;;;;;;;;;;;;;;4833872;29;20057;-77
2024/01/19 11:06:17;;;;;;;8.18;2.10;;;;;;;;;;4833121;29;20417;-75
2024/01/19 11:08:48;;;;;;;3.72;1.48;;;;;;;;;;4833412;29;20513;-75
2024/01/19 11:11:21;;;;;;;6.15;2.03;;;;;;;;;;4833232;29;20085;-75
2024/01/19 11:13:59;;;;;;;7.82;1.90;;;;;;;;;;4833584;29;20058;-75
2024/01/19 11:16:41;;;;;;;8.07;1.65;;;;;;;;;;4833244;29;20053;-75
2024/01/19 11:19:12;;;;;;;6.32;1.50;;;;;;;;;;4833157;29;20064;-76
2024/01/19 11:21:44;;;;;;;5.35;1.40;;;;;;;;;;4833186;29;20533;-75
2024/01/19 11:24:17;;;;;;;4.60;1.70;;;;;;;;;;4833480;29;20046;-75
2024/01/19 11:27:21;;;;;;;4.80;1.63;;;;;;;;;;4833474;29;20053;-75
2024/01/19 11:30:00;;;;;;;7.28;1.73;;;;;;;;;;4832143;29;20050;-76
2024/01/19 11:32:31;;;;;;;10.10;2.17;;;;;;;;;;4833138;29;20532;-75
2024/01/19 11:35:02;;;;;;;4.18;1.95;;;;;;;;;;4832650;29;20046;-75
2024/01/19 11:37:46;;;;;;;7.57;2.30;;;;;;;;;;4832811;29;20053;-75
2024/01/19 11:40:25;;;;;;;8.50;2.40;;;;;;;;;;4832940;29;20524;-75
2024/01/19 11:42:56;;;;;;;6.68;2.17;;;;;;;;;;4832787;29;20414;-75
2024/01/19 11:45:42;;;;;;;4.70;2.50;;;;;;;;;;4832795;29;20616;-76
2024/01/19 11:48:52;;;;;;;4.75;2.28;;;;;;;;;;4832390;29;20058;-77
2024/01/19 11:51:33;;;;;;;7.72;2.70;;;;;;;;;;4832435;29;21033;-75
2024/01/19 11:54:05;;;;;;;6.20;2.13;;;;;;;;;;4832061;29;20053;-76
2024/01/19 11:56:37;;;;;;;6.80;2.63;;;;;;;;;;4832424;29;20049;-79
2024/01/19 11:59:09;;;;;;;8.55;2.20;;;;;;;;;;4832743;29;20062;-75
2024/01/19 12:01:42;;;;;;;6.85;2.35;;;;;;;;;;4833460;29;20045;-74
2024/01/19 12:04:14;;;;;;;6.20;2.13;;;;;;;;;;4832983;29;21028;-78
2024/01/19 12:06:45;;;;;;;3.22;1.92;;;;;;;;;;4832096;29;20511;-76
2024/01/19 12:09:17;;;;;;;3.58;1.60;;;;;;;;;;4830504;29;20074;-76
2024/01/19 12:11:57;;;;;;;7.65;1.70;;;;;;;;;;4832522;29;20688;-75
2024/01/19 12:14:28;;;;;;;3.03;1.45;;;;;;;;;;4830953;29;20050;-76
2024/01/19 12:16:58;;;;;;;4.72;1.40;;;;;;;;;;4831554;29;20741;-76
2024/01/19 12:19:30;;;;;;;6.40;1.65;;;;;;;;;;4832230;29;20054;-77
2024/01/19 12:22:01;;;;;;;5.03;1.30;;;;;;;;;;4830920;29;20061;-74
2024/01/19 12:24:31;;;;;;;4.32;1.40;;;;;;;;;;4831431;29;20058;-81
2024/01/19 12:27:02;;;;;;;4.82;1.08;;;;;;;;;;4831037;29;20050;-76
2024/01/19 12:29:36;;;;;;;3.33;1.30;;;;;;;;;;4834853;29;20058;-74
2024/01/19 12:32:10;;;;;;;3.60;1.40;;;;;;;;;;4833541;29;20064;-76
2024/01/19 12:34:41;;;;;;;2.00;1.00;;;;;;;;;;4832474;29;20054;-76
2024/01/19 12:37:14;;;;;;;5.50;1.10;;;;;;;;;;4832169;29;20058;-76
2024/01/19 12:39:45;;;;;;;4.22;1.00;;;;;;;;;;4832095;29;20097;-78
2024/01/19 12:42:15;;;;;;;3.20;1.15;;;;;;;;;;4831919;29;20088;-75
2024/01/19 12:44:46;;;;;;;2.67;0.80;;;;;;;;;;4832119;29;20433;-78
2024/01/19 12:47:18;;;;;;;1.15;0.98;;;;;;;;;;4831770;29;20418;-75
2024/01/19 12:49:50;;;;;;;4.72;1.75;;;;;;;;;;4831946;29;20057;-76
2024/01/19 12:52:31;;;;;;;4.78;1.08;;;;;;;;;;4831634;29;20414;-74
2024/01/19 12:55:05;;;;;;;3.05;1.17;;;;;;;;;;4830334;29;20411;-78
2024/01/19 12:57:36;;;;;;;3.15;1.27;;;;;;;;;;4831926;29;20647;-76
2024/01/19 13:00:16;;;;;;;9.48;1.35;;;;;;;;;;4831850;29;20058;-75
2024/01/19 13:02:46;;;;;;;1.88;1.13;;;;;;;;;;4831546;29;20058;-75
2024/01/19 13:05:20;;;;;;;3.60;1.10;;;;;;;;;;4815917;29;20410;-77
2024/01/19 13:07:56;;;;;;;4.57;1.20;;;;;;;;;;4832001;29;20513;-75
2024/01/19 13:10:27;;;;;;;2.33;1.00;;;;;;;;;;4831704;29;20054;-73
2024/01/19 13:13:05;;;;;;;2.60;1.00;;;;;;;;;;4831848;29;20050;-75
2024/01/19 13:15:37;;;;;;;2.97;1.10;;;;;;;;;;4831724;29;20053;-80
2024/01/19 13:18:15;;;;;;;2.55;1.20;;;;;;;;;;4831841;29;20065;-80
2024/01/19 13:20:46;;;;;;;5.13;2.10;;;;;;;;;;4832284;29;20054;-75
2024/01/19 13:23:17;;;;;;;2.00;1.05;;;;;;;;;;4832065;29;20054;-76
2024/01/19 13:25:55;;;;;;;4.20;2.83;;;;;;;;;;4831003;29;20429;-78
2024/01/19 13:28:27;;;;;;;2.00;1.20;;;;;;;;;;4831986;29;20053;-75
2024/01/19 13:30:59;;;;;;;3.42;1.50;;;;;;;;;;4831139;29;20533;-75
2024/01/19 13:33:30;;;;;;;3.75;1.20;;;;;;;;;;4831298;29;20058;-77
2024/01/19 13:36:00;;;;;;;6.65;1.25;;;;;;;;;;4833441;29;20062;-77
2024/01/19 13:38:31;;;;;;;3.95;1.35;;;;;;;;;;4835210;29;20050;-83
2024/01/19 13:41:02;;;;;;;3.50;1.73;;;;;;;;;;4834270;29;20066;-77
2024/01/19 13:43:32;;;;;;;3.95;1.40;;;;;;;;;;4835234;29;20774;-76
2024/01/19 13:46:03;;;;;;;4.30;1.40;;;;;;;;;;4835102;29;20069;-80
2024/01/19 13:48:33;;;;;;;3.53;1.35;;;;;;;;;;4834351;29;20054;-78
2024/01/19 13:51:04;;;;;;;6.82;1.70;;;;;;;;;;4833537;29;20054;-83
2024/01/19 13:53:35;;;;;;;3.05;1.63;;;;;;;;;;4834632;29;20049;-76
2024/01/19 13:56:06;;;;;;;2.10;1.30;;;;;;;;;;4836061;29;20054;-75
2024/01/19 13:58:37;;;;;;;3.47;1.40;;;;;;;;;;4833985;29;20054;-78
2024/01/19 14:01:11;;;;;;;4.22;1.40;;;;;;;;;;4833161;29;20073;-79
2024/01/19 14:03:42;;;;;;;2.40;1.30;;;;;;;;;;4834445;29;20060;-78
2024/01/19 14:06:13;;;;;;;3.78;1.40;;;;;;;;;;4834514;29;20042;-78
2024/01/19 14:08:46;;;;;;;3.15;1.42;;;;;;;;;;4832825;29;20062;-79
2024/01/19 14:11:17;;;;;;;4.30;1.30;;;;;;;;;;4834387;29;20061;-79
2024/01/19 14:13:48;;;;;;;2.53;1.50;;;;;;;;;;4834594;29;20057;-78
2024/01/19 14:16:19;;;;;;;4.45;1.40;;;;;;;;;;4834384;29;20053;-79
2024/01/19 14:18:51;;;;;;;3.35;1.25;;;;;;;;;;4833906;29;20061;-78
2024/01/19 14:21:22;;;;;;;6.47;1.52;;;;;;;;;;4833234;29;20065;-76
2024/01/19 14:23:52;;;;;;;4.10;1.50;;;;;;;;;;4832863;29;20053;-78
2024/01/19 14:26:23;;;;;;;8.23;1.30;;;;;;;;;;4834612;29;20506;-74
2024/01/19 14:28:55;;;;;;;1.90;1.00;;;;;;;;;;4834497;29;20490;-81
2024/01/19 14:31:27;;;;;;;3.03;0.95;;;;;;;;;;4834052;29;20414;-78
2024/01/19 14:33:58;;;;;;;2.20;1.13;;;;;;;;;;4834747;29;20060;-79
2024/01/19 14:36:29;;;;;;;4.88;1.48;;;;;;;;;;4832820;29;20046;-73
2024/01/19 14:39:00;;;;;;;1.60;1.25;;;;;;;;;;4833703;29;20445;-77
2024/01/19 14:41:33;;;;;;;3.25;1.23;;;;;;;;;;4833636;29;20050;-78
2024/01/19 14:44:05;;;;;;;4.68;1.35;;;;;;;;;;4832550;29;20058;-78
2024/01/19 14:46:35;;;;;;;12.48;2.17;;;;;;;;;;4833247;29;20064;-76
2024/01/19 14:49:06;;;;;;;3.42;1.40;;;;;;;;;;4833265;29;20053;-77
2024/01/19 14:51:38;;;;;;;2.38;1.63;;;;;;;;;;4833601;29;20057;-76
2024/01/19 14:54:14;;;;;;;2.72;1.10;;;;;;;;;;4833493;29;20054;-77
2024/01/19 14:56:47;;;;;;;4.53;1.15;;;;;;;;;;4833688;29;20060;-78
2024/01/19 14:59:17;;;;;;;1.50;1.00;;;;;;;;;;4833410;29;20073;-78
2024/01/19 15:01:51;;;;;;;2.58;1.20;;;;;;;;;;4833838;29;20692;-77
2024/01/19 15:04:21;;;;;;;3.00;1.70;;;;;;;;;;4833777;29;20097;-80
2024/01/19 15:06:52;;;;;;;1.95;1.60;;;;;;;;;;4833774;29;20049;-77
2024/01/19 15:09:23;;;;;;;4.93;1.08;;;;;;;;;;4833428;29;20053;-78
2024/01/19 15:11:56;;;;;;;3.92;1.67;;;;;;;;;;4833779;29;20053;-78